Storm Events Database

Event Details

Event Thunderstorm Wind
Magnitude 53 kts.
State KENTUCKY
County/Area FLEMING
WFO JKL
Report Source Law Enforcement
NCDC Data Source CSV
Begin Date 2008-01-29 22:20:00.0 EST-5
Begin Location 5E FLEMINGSBURG
Begin Lat/Lon 38.42/-83.64
End Date 2008-01-29 22:25:00.0 EST-5
Deaths Direct/Indirect 0/0 (fatality details below, when available...)
Injuries Direct/Indirect 0/0
Property Damage 6.00K
Crop Damage 0.00K
Episode Narrative A strong cold front moved through Kentucky during the evening of January 29, 2008, into the overnight hours of January 30th. A line of severe thunderstorms accompanied the front, resulting in widespread wind damage across Eastern Kentucky.
Event Narrative A small barn was blown into Cherry Grove Road at Mill Creek Road. A tree was blown down across Watson Road. All damage was caused by winds estimated at 61 mph.


     ‚Äč



All events for this episode:

Location County/Zone St. Date Time T.Z. Type Mag Dth Inj PrD CrD
Totals: 0 1 902.50K 0.00K
EAST BERNSTADT LAUREL CO. KY 01/29/2008 21:35 EST-5 Thunderstorm Wind 60 kts. EG 0 0 20.00K 0.00K
SOMERSET PULASKI CO. KY 01/29/2008 21:45 EST-5 Thunderstorm Wind 55 kts. EG 0 0 50.00K 0.00K
MONTICELLO WAYNE CO. KY 01/29/2008 21:51 EST-5 Thunderstorm Wind 55 kts. EG 0 0 50.00K 0.00K
LIVINGSTON ROCKCASTLE CO. KY 01/29/2008 22:00 EST-5 Thunderstorm Wind 52 kts. EG 0 0 2.00K 0.00K
WHITLEY CITY MCCREARY CO. KY 01/29/2008 22:00 EST-5 Thunderstorm Wind 55 kts. EG 0 0 30.00K 0.00K
MT VICTORY PULASKI CO. KY 01/29/2008 22:10 EST-5 Thunderstorm Wind 55 kts. EG 0 0 50.00K 0.00K
CLAY CITY POWELL CO. KY 01/29/2008 22:11 EST-5 Thunderstorm Wind 53 kts. EG 0 0 2.50K 0.00K
IRVINE ESTILL CO. KY 01/29/2008 22:15 EST-5 Thunderstorm Wind 52 kts. EG 0 0 1.00K 0.00K
MT STERLING MONTGOMERY CO. KY 01/29/2008 22:15 EST-5 Thunderstorm Wind 55 kts. EG 0 0 50.00K 0.00K
CLOVER BOTTOM JACKSON CO. KY 01/29/2008 22:19 EST-5 Thunderstorm Wind 53 kts. EG 0 0 10.00K 0.00K
FLEMINGSBURG FLEMING CO. KY 01/29/2008 22:20 EST-5 Thunderstorm Wind 53 kts. EG 0 0 6.00K 0.00K
OWINGSVILLE BATH CO. KY 01/29/2008 22:20 EST-5 Thunderstorm Wind 53 kts. EG 0 0 7.00K 0.00K
HOLLYHILL MCCREARY CO. KY 01/29/2008 22:25 EST-5 Thunderstorm Wind 53 kts. EG 0 0 4.00K 0.00K
LICK FORK ROWAN CO. KY 01/29/2008 22:30 EST-5 Thunderstorm Wind 53 kts. EG 0 0 5.00K 0.00K
WILLIAMSBURG WHITLEY CO. KY 01/29/2008 22:30 EST-5 Thunderstorm Wind 55 kts. EG 0 0 30.00K 0.00K
ANNVILLE JACKSON CO. KY 01/29/2008 22:32 EST-5 Thunderstorm Wind 58 kts. EG 0 0 70.00K 0.00K
EAST BERNSTADT LAUREL CO. KY 01/29/2008 22:35 EST-5 Thunderstorm Wind 55 kts. EG 0 0 20.00K 0.00K
LONDON LAUREL CO. KY 01/29/2008 22:37 EST-5 Thunderstorm Wind 55 kts. EG 0 0 0.00K 0.00K
BEATTYVILLE LEE CO. KY 01/29/2008 22:40 EST-5 Thunderstorm Wind 53 kts. EG 0 0 5.00K 0.00K
BOONEVILLE OWSLEY CO. KY 01/29/2008 22:40 EST-5 Thunderstorm Wind 53 kts. EG 0 0 5.00K 0.00K
HAMM ROWAN CO. KY 01/29/2008 22:40 EST-5 Thunderstorm Wind 53 kts. EG 0 0 5.00K 0.00K
MARIBA MENIFEE CO. KY 01/29/2008 22:40 EST-5 Thunderstorm Wind 58 kts. EG 0 0 40.00K 0.00K
CARPENTER WHITLEY CO. KY 01/29/2008 22:44 EST-5 Thunderstorm Wind 53 kts. EG 0 0 5.00K 0.00K
BARBOURVILLE KNOX CO. KY 01/29/2008 22:47 EST-5 Thunderstorm Wind 58 kts. EG 0 0 30.00K 0.00K
ELLIOTTVILLE ROWAN CO. KY 01/29/2008 22:48 EST-5 Thunderstorm Wind 53 kts. EG 0 0 5.00K 0.00K
BEATTYVILLE LEE CO. KY 01/29/2008 22:50 EST-5 Thunderstorm Wind 58 kts. EG 0 0 40.00K 0.00K
FLAT WOLFE CO. KY 01/29/2008 22:50 EST-5 Thunderstorm Wind 54 kts. EG 0 0 7.00K 0.00K
MANCHESTER CLAY CO. KY 01/29/2008 22:50 EST-5 Thunderstorm Wind 53 kts. EG 0 0 2.00K 0.00K
WEST LIBERTY MORGAN CO. KY 01/29/2008 22:50 EST-5 Thunderstorm Wind 53 kts. EG 0 0 5.00K 0.00K
JACKSON BREATHITT CO. KY 01/29/2008 22:55 EST-5 Thunderstorm Wind 54 kts. EG 0 0 8.00K 0.00K
JACKSON BREATHITT CO. KY 01/29/2008 23:00 EST-5 Thunderstorm Wind 53 kts. EG 0 0 5.00K 0.00K
JACKSON BREATHITT CO. KY 01/29/2008 23:00 EST-5 Thunderstorm Wind 53 kts. EG 0 0 1.00K 0.00K
SIZEROCK LESLIE CO. KY 01/29/2008 23:00 EST-5 Thunderstorm Wind 53 kts. EG 0 0 5.00K 0.00K
SANDY HOOK ELLIOTT CO. KY 01/29/2008 23:02 EST-5 Thunderstorm Wind 54 kts. EG 0 0 6.00K 0.00K
QUICKSAND BREATHITT CO. KY 01/29/2008 23:06 EST-5 Thunderstorm Wind 53 kts. EG 0 0 1.00K 0.00K
PINEVILLE BELL CO. KY 01/29/2008 23:07 EST-5 Thunderstorm Wind 58 kts. EG 0 0 50.00K 0.00K
HYDEN LESLIE CO. KY 01/29/2008 23:10 EST-5 Thunderstorm Wind 54 kts. EG 0 0 3.00K 0.00K
WILSTACY BREATHITT CO. KY 01/29/2008 23:10 EST-5 Thunderstorm Wind 54 kts. EG 0 0 5.00K 0.00K
HYDEN LESLIE CO. KY 01/29/2008 23:12 EST-5 Thunderstorm Wind 58 kts. EG 0 0 50.00K 0.00K
FRITZ MAGOFFIN CO. KY 01/29/2008 23:15 EST-5 Thunderstorm Wind 55 kts. EG 0 0 20.00K 0.00K
HAZARD PERRY CO. KY 01/29/2008 23:15 EST-5 Thunderstorm Wind 53 kts. EG 0 0 4.00K 0.00K
HENDRICKS MAGOFFIN CO. KY 01/29/2008 23:15 EST-5 Thunderstorm Wind 54 kts. EG 0 0 8.00K 0.00K
SALYERSVILLE MAGOFFIN CO. KY 01/29/2008 23:15 EST-5 Thunderstorm Wind 54 kts. EG 0 0 25.00K 0.00K
CUBAGE BELL CO. KY 01/29/2008 23:22 EST-5 Thunderstorm Wind 54 kts. EG 0 0 6.00K 0.00K
VIPER PERRY CO. KY 01/29/2008 23:25 EST-5 Thunderstorm Wind 54 kts. EG 0 0 7.00K 0.00K
CARRIE KNOTT CO. KY 01/29/2008 23:28 EST-5 Thunderstorm Wind 54 kts. EG 0 0 10.00K 0.00K
HINDMAN KNOTT CO. KY 01/29/2008 23:30 EST-5 Thunderstorm Wind 54 kts. EG 0 0 10.00K 0.00K
PAINTSVILLE JOHNSON CO. KY 01/29/2008 23:30 EST-5 Thunderstorm Wind 58 kts. EG 0 0 50.00K 0.00K
CARR CREEK KNOTT CO. KY 01/29/2008 23:40 EST-5 Thunderstorm Wind 54 kts. EG 0 0 8.00K 0.00K
PRESTONSBURG FLOYD CO. KY 01/29/2008 23:40 EST-5 Thunderstorm Wind 55 kts. EG 0 0 25.00K 0.00K
ROSSPOINT HARLAN CO. KY 01/29/2008 23:45 EST-5 Thunderstorm Wind 54 kts. EG 0 0 10.00K 0.00K
INEZ MARTIN CO. KY 01/29/2008 23:50 EST-5 Thunderstorm Wind 54 kts. EG 0 0 7.00K 0.00K
PREMIUM LETCHER CO. KY 01/29/2008 23:52 EST-5 Thunderstorm Wind 53 kts. EG 0 0 1.00K 0.00K
WHITESBURG LETCHER CO. KY 01/30/2008 00:00 EST-5 Thunderstorm Wind 54 kts. EG 0 0 5.00K 0.00K
FLEMING LETCHER CO. KY 01/30/2008 00:05 EST-5 Thunderstorm Wind 54 kts. EG 0 0 6.00K 0.00K
SHELBIANA PIKE CO. KY 01/30/2008 00:35 EST-5 Thunderstorm Wind 58 kts. EG 0 1 10.00K 0.00K
Totals: 0 1 902.50K 0.00K